createdAt,value
2018-01-08T00:02:21.519Z,100913.34
2018-01-08T00:04:48.979Z,100914.30
2018-01-08T00:07:16.462Z,100909.09
2018-01-08T00:09:43.927Z,100910.14
2018-01-08T00:12:11.414Z,100911.45
2018-01-08T00:14:38.876Z,100910.33
2018-01-08T00:17:06.353Z,100899.17
2018-01-08T00:19:33.839Z,100898.55
2018-01-08T00:22:01.316Z,100893.48
2018-01-08T00:24:28.775Z,100895.56
2018-01-08T00:26:56.239Z,100893.26
2018-01-08T00:29:23.715Z,100886.23
2018-01-08T00:31:51.174Z,100874.14
2018-01-08T00:34:18.656Z,100879.61
2018-01-08T00:36:46.139Z,100883.88
2018-01-08T00:39:13.611Z,100876.73
2018-01-08T00:41:41.067Z,100863.50
2018-01-08T00:44:08.561Z,100867.83
2018-01-08T00:46:36.020Z,100866.58
2018-01-08T00:49:03.516Z,100879.77
2018-01-08T00:51:30.971Z,100872.20
2018-01-08T00:53:58.451Z,100875.32
2018-01-08T00:56:25.906Z,100883.66
2018-01-08T00:58:53.399Z,100879.23
2018-01-08T01:01:20.855Z,100873.47
2018-01-08T01:03:48.310Z,100873.34
2018-01-08T01:06:15.807Z,100875.50
2018-01-08T01:08:43.267Z,100877.37
2018-01-08T01:11:10.767Z,100888.13
2018-01-08T01:13:38.245Z,100885.33
2018-01-08T01:16:05.734Z,100884.19
2018-01-08T01:18:33.204Z,100880.58
2018-01-08T01:21:00.671Z,100884.61
2018-01-08T01:23:28.143Z,100883.29
2018-01-08T01:25:55.618Z,100879.32
2018-01-08T01:28:23.067Z,100872.13
2018-01-08T01:30:50.563Z,100874.78
2018-01-08T01:33:18.039Z,100877.55
2018-01-08T01:35:45.531Z,100867.64
2018-01-08T01:38:13.000Z,100878.63
2018-01-08T01:40:40.463Z,100887.92
2018-01-08T01:43:07.954Z,100885.12
2018-01-08T01:45:35.410Z,100890.70
2018-01-08T01:48:02.891Z,100884.94
2018-01-08T01:50:30.363Z,100890.13
2018-01-08T01:52:57.903Z,100898.14
2018-01-08T01:55:25.359Z,100896.91
2018-01-08T01:57:52.887Z,100893.98
2018-01-08T02:00:20.356Z,100896.80
2018-01-08T02:02:47.865Z,100896.59
2018-01-08T02:05:15.334Z,100901.37
2018-01-08T02:07:42.812Z,100892.77
2018-01-08T02:10:10.271Z,100900.53
2018-01-08T02:12:37.780Z,100894.47
2018-01-08T02:15:05.246Z,100905.94
2018-01-08T02:17:32.718Z,100905.40
2018-01-08T02:20:00.199Z,100898.89
2018-01-08T02:22:27.659Z,100905.81
2018-01-08T02:24:55.143Z,100899.27
2018-01-08T02:27:22.646Z,100901.45
2018-01-08T02:29:50.120Z,100893.60
2018-01-08T02:32:17.572Z,100894.56
2018-01-08T02:34:45.053Z,100899.96
2018-01-08T02:37:12.527Z,100893.84
2018-01-08T02:39:40.011Z,100894.25
2018-01-08T02:42:07.466Z,100898.20
2018-01-08T02:44:34.957Z,100894.97
2018-01-08T02:47:02.420Z,100890.22
2018-01-08T02:49:29.925Z,100884.13
2018-01-08T02:51:57.392Z,100893.45
2018-01-08T02:54:24.892Z,100894.52
2018-01-08T02:56:52.363Z,100887.06
2018-01-08T02:59:19.820Z,100887.72
2018-01-08T03:01:47.298Z,100887.80
2018-01-08T03:04:14.766Z,100888.55
2018-01-08T03:06:42.242Z,100885.23
2018-01-08T03:09:09.699Z,100878.69
2018-01-08T03:11:37.183Z,100881.83
2018-01-08T03:14:04.640Z,100882.64
2018-01-08T03:16:32.120Z,100882.22
2018-01-08T03:18:59.579Z,100885.23
2018-01-08T03:21:27.052Z,100884.37
2018-01-08T03:23:54.508Z,100881.56
2018-01-08T03:26:21.990Z,100881.63
2018-01-08T03:28:49.443Z,100885.33
2018-01-08T03:31:16.939Z,100883.98
2018-01-08T03:33:44.394Z,100884.91
2018-01-08T03:36:12.063Z,100889.06
2018-01-08T03:38:39.545Z,100872.90
2018-01-08T03:41:06.999Z,100874.66
2018-01-08T03:43:34.482Z,100874.75
2018-01-08T03:46:01.943Z,100872.27
2018-01-08T03:48:29.426Z,100875.77
2018-01-08T03:50:56.891Z,100870.60
2018-01-08T03:53:24.372Z,100876.01
2018-01-08T03:55:52.679Z,100876.48
2018-01-08T03:58:20.159Z,100878.67
2018-01-08T04:00:47.620Z,100881.44
2018-01-08T04:03:15.108Z,100885.77
2018-01-08T04:05:42.571Z,100880.99
2018-01-08T04:08:10.063Z,100880.64
2018-01-08T04:10:37.523Z,100884.76
2018-01-08T04:13:05.007Z,100885.30
2018-01-08T04:15:32.467Z,100890.34
2018-01-08T04:17:59.918Z,100887.12
2018-01-08T04:20:27.424Z,100890.64
2018-01-08T04:22:54.880Z,100886.44
2018-01-08T04:25:22.363Z,100887.95
2018-01-08T04:27:49.822Z,100883.53
2018-01-08T04:30:17.303Z,100886.77
2018-01-08T04:32:44.756Z,100878.88
2018-01-08T04:35:12.237Z,100886.73
2018-01-08T04:37:39.696Z,100888.88
2018-01-08T04:40:07.174Z,100889.33
2018-01-08T04:42:34.627Z,100878.67
2018-01-08T04:45:02.106Z,100876.61
2018-01-08T04:47:29.564Z,100878.42
2018-01-08T04:49:57.023Z,100878.30
2018-01-08T04:52:24.507Z,100876.96
2018-01-08T04:54:52.887Z,100886.91
2018-01-08T04:57:20.390Z,100877.71
2018-01-08T04:59:47.852Z,100871.41
2018-01-08T05:02:15.326Z,100873.59
2018-01-08T05:04:42.791Z,100877.44
2018-01-08T05:07:10.269Z,100877.41
2018-01-08T05:09:37.730Z,100885.72
2018-01-08T05:12:05.208Z,100874.22
2018-01-08T05:14:32.662Z,100878.01
2018-01-08T05:17:00.163Z,100872.03
2018-01-08T05:19:27.625Z,100869.26
2018-01-08T05:21:55.117Z,100868.75
2018-01-08T05:24:22.590Z,100875.98
2018-01-08T05:26:50.045Z,100878.67
2018-01-08T05:29:17.518Z,100878.75
2018-01-08T05:31:45.004Z,100883.75
2018-01-08T05:34:12.493Z,100873.38
2018-01-08T05:36:39.984Z,100875.89
2018-01-08T05:39:07.510Z,100877.95
2018-01-08T05:41:34.978Z,100875.14
2018-01-08T05:44:02.459Z,100877.20
2018-01-08T05:46:29.938Z,100879.80
2018-01-08T05:48:57.442Z,100881.36
2018-01-08T05:51:24.903Z,100880.22
2018-01-08T05:53:52.375Z,100886.52
2018-01-08T05:56:19.853Z,100885.20
2018-01-08T05:58:47.317Z,100881.48
2018-01-08T06:01:14.807Z,100882.16
2018-01-08T06:03:42.272Z,100887.12
2018-01-08T06:06:09.752Z,100884.37
2018-01-08T06:08:37.217Z,100870.84
2018-01-08T06:11:04.696Z,100875.08
2018-01-08T06:13:32.152Z,100873.32
2018-01-08T06:15:59.661Z,100876.58
2018-01-08T06:18:27.128Z,100867.91
2018-01-08T06:20:54.597Z,100868.57
2018-01-08T06:23:22.099Z,100865.46
2018-01-08T06:25:49.559Z,100869.31
2018-01-08T06:28:17.043Z,100864.37
2018-01-08T06:30:44.502Z,100860.95
2018-01-08T06:33:11.986Z,100854.73
2018-01-08T06:35:39.444Z,100861.70
2018-01-08T06:38:06.924Z,100862.27
2018-01-08T06:40:34.382Z,100870.55
2018-01-08T06:43:01.858Z,100862.78
2018-01-08T06:45:29.316Z,100863.94
2018-01-08T06:47:56.775Z,100863.17
2018-01-08T06:50:24.263Z,100858.44
2018-01-08T06:52:51.735Z,100865.27
2018-01-08T06:55:19.223Z,100869.98
2018-01-08T06:57:46.745Z,100865.56
2018-01-08T07:00:14.196Z,100865.98
2018-01-08T07:02:41.659Z,100876.73
2018-01-08T07:05:09.152Z,100868.98
2018-01-08T07:07:36.612Z,100868.31
2018-01-08T07:10:04.085Z,100865.80
2018-01-08T07:12:31.579Z,100876.34
2018-01-08T07:14:59.064Z,100873.34
2018-01-08T07:17:26.551Z,100872.50
2018-01-08T07:19:54.007Z,100868.89
2018-01-08T07:22:21.493Z,100868.08
2018-01-08T07:24:48.959Z,100872.52
2018-01-08T07:27:16.451Z,100874.71
2018-01-08T07:29:43.906Z,100863.48
2018-01-08T07:32:11.403Z,100863.25
2018-01-08T07:34:38.893Z,100871.12
2018-01-08T07:37:06.379Z,100868.55
2018-01-08T07:39:33.915Z,100860.13
2018-01-08T07:42:01.396Z,100864.70
2018-01-08T07:44:28.887Z,100864.22
2018-01-08T07:46:56.351Z,100863.14
2018-01-08T07:49:23.859Z,100863.17
2018-01-08T07:51:51.327Z,100861.91
2018-01-08T07:54:18.831Z,100872.17
2018-01-08T07:56:46.304Z,100873.72
2018-01-08T07:59:13.776Z,100875.09
2018-01-08T08:01:41.255Z,100875.47
2018-01-08T08:04:08.723Z,100869.89
2018-01-08T08:06:36.223Z,100867.92
2018-01-08T08:09:03.710Z,100870.72
2018-01-08T08:11:31.194Z,100858.50
2018-01-08T08:13:58.666Z,100860.87
2018-01-08T08:16:26.159Z,100869.89
2018-01-08T08:18:53.651Z,100861.94
2018-01-08T08:21:21.119Z,100865.37
2018-01-08T08:23:48.642Z,100860.02
2018-01-08T08:26:16.110Z,100863.03
2018-01-08T08:28:43.587Z,100866.72
2018-01-08T08:31:11.055Z,100865.14
2018-01-08T08:33:38.546Z,100861.73
2018-01-08T08:36:06.013Z,100859.25
2018-01-08T08:38:33.505Z,100860.17
2018-01-08T08:41:00.972Z,100867.74
2018-01-08T08:43:28.463Z,100870.19
2018-01-08T08:45:55.944Z,100880.48
2018-01-08T08:48:23.431Z,100880.65
2018-01-08T08:50:50.899Z,100880.23
2018-01-08T08:53:18.380Z,100887.07
2018-01-08T08:55:45.846Z,100879.41
2018-01-08T08:58:18.717Z,100877.13
2018-01-08T09:00:40.842Z,100872.26
2018-01-08T09:03:08.327Z,100871.43
2018-01-08T09:05:35.791Z,100872.56
2018-01-08T09:08:03.283Z,100879.61
2018-01-08T09:10:30.755Z,100875.90
2018-01-08T09:12:58.235Z,100872.75
2018-01-08T09:15:25.707Z,100871.45
2018-01-08T09:17:53.208Z,100864.48
2018-01-08T09:20:20.678Z,100861.95
2018-01-08T09:22:48.158Z,100860.16
2018-01-08T09:25:15.629Z,100862.03
2018-01-08T09:27:43.119Z,100861.68
2018-01-08T09:30:10.579Z,100864.43
2018-01-08T09:32:38.070Z,100869.08
2018-01-08T09:35:05.535Z,100863.94
2018-01-08T09:37:32.996Z,100869.14
2018-01-08T09:40:00.484Z,100869.16
2018-01-08T09:42:27.955Z,100865.08
2018-01-08T09:44:55.440Z,100866.94
2018-01-08T09:47:22.911Z,100861.75
2018-01-08T09:49:50.399Z,100859.13
2018-01-08T09:52:17.866Z,100862.14
2018-01-08T09:54:45.347Z,100860.79
2018-01-08T09:57:12.824Z,100864.87
2018-01-08T09:59:40.319Z,100873.27
2018-01-08T10:02:08.779Z,100876.16
2018-01-08T10:04:47.930Z,100869.74
2018-01-08T10:07:27.004Z,100859.11
2018-01-08T10:10:06.016Z,100850.61
2018-01-08T10:12:45.142Z,100856.29
2018-01-08T10:15:24.287Z,100847.59
2018-01-08T10:18:03.503Z,100842.21
2018-01-08T10:20:31.011Z,100843.56
2018-01-08T10:22:58.493Z,100831.88
2018-01-08T10:25:25.983Z,100834.03
2018-01-08T10:27:53.455Z,100825.75
2018-01-08T10:30:20.942Z,100822.63
2018-01-08T10:32:48.418Z,100820.97
2018-01-08T10:35:15.903Z,100827.10
2018-01-08T10:37:43.416Z,100826.98
2018-01-08T10:40:10.883Z,100829.25
2018-01-08T10:42:43.993Z,100827.89
2018-01-08T10:45:17.058Z,100825.50
2018-01-08T10:47:50.187Z,100820.20
2018-01-08T10:50:23.270Z,100806.63
2018-01-08T10:52:56.267Z,100794.55
2018-01-08T10:55:23.748Z,100793.30
2018-01-08T10:57:51.269Z,100801.27
2018-01-08T11:00:18.749Z,100793.18
2018-01-08T11:02:51.796Z,100794.59
2018-01-08T11:05:19.282Z,100789.52
2018-01-08T11:07:46.772Z,100783.69
2018-01-08T11:10:14.239Z,100778.77
2018-01-08T11:12:41.726Z,100778.41
2018-01-08T11:15:09.187Z,100768.05
2018-01-08T11:17:36.674Z,100777.55
2018-01-08T11:20:04.139Z,100772.52
2018-01-08T11:22:31.617Z,100768.41
2018-01-08T11:24:59.080Z,100770.89
2018-01-08T11:27:26.568Z,100768.92
2018-01-08T11:29:54.027Z,100756.83
2018-01-08T11:32:21.515Z,100749.34
2018-01-08T11:34:49.006Z,100758.83
2018-01-08T11:37:18.660Z,100752.16
2018-01-08T11:39:46.156Z,100758.80
2018-01-08T11:42:13.676Z,100751.80
2018-01-08T11:44:41.147Z,100746.08
2018-01-08T11:47:08.623Z,100755.56
2018-01-08T11:49:36.082Z,100747.41
2018-01-08T11:52:03.807Z,100742.89
2018-01-08T11:54:31.288Z,100734.70
2018-01-08T11:56:58.761Z,100735.02
2018-01-08T11:59:26.214Z,100732.10
2018-01-08T12:01:53.696Z,100735.73
2018-01-08T12:04:21.180Z,100729.18
2018-01-08T12:06:48.651Z,100736.24
2018-01-08T12:09:16.114Z,100721.13
2018-01-08T12:11:43.740Z,100724.24
2018-01-08T12:14:11.337Z,100718.69
2018-01-08T12:16:38.862Z,100714.20
2018-01-08T12:19:06.395Z,100714.06
2018-01-08T12:21:33.867Z,100709.61
2018-01-08T12:24:01.347Z,100703.02
2018-01-08T12:26:28.820Z,100700.79
2018-01-08T12:28:56.316Z,100699.21
2018-01-08T12:31:23.776Z,100686.48
2018-01-08T12:33:51.263Z,100683.67
2018-01-08T12:36:18.726Z,100674.49
2018-01-08T12:38:46.210Z,100682.41
2018-01-08T12:41:13.675Z,100678.93
2018-01-08T12:43:41.160Z,100675.33
2018-01-08T12:46:08.628Z,100674.91
2018-01-08T12:48:36.110Z,100671.81
2018-01-08T12:51:03.575Z,100675.57
2018-01-08T12:53:31.070Z,100675.52
2018-01-08T12:55:58.548Z,100670.02
2018-01-08T12:58:26.035Z,100662.36
2018-01-08T13:00:53.534Z,100659.66
2018-01-08T13:03:21.041Z,100662.56
2018-01-08T13:05:48.515Z,100659.39
2018-01-08T13:08:16.002Z,100654.45
2018-01-08T13:10:43.507Z,100664.28
2018-01-08T13:13:10.995Z,100663.27
2018-01-08T13:15:38.460Z,100655.77
2018-01-08T13:18:05.967Z,100655.50
2018-01-08T13:20:34.244Z,100651.20
2018-01-08T13:23:01.783Z,100652.01
2018-01-08T13:25:29.326Z,100653.83
2018-01-08T13:27:56.827Z,100648.68
2018-01-08T13:30:24.364Z,100654.36
2018-01-08T13:32:51.879Z,100658.40
2018-01-08T13:35:19.354Z,100656.50
2018-01-08T13:37:46.850Z,100660.97
2018-01-08T13:40:14.306Z,100658.25
2018-01-08T13:42:41.766Z,100647.41
2018-01-08T13:45:09.279Z,100658.14
2018-01-08T13:47:36.800Z,100646.66
2018-01-08T13:50:04.340Z,100652.28
2018-01-08T13:52:31.840Z,100644.05
2018-01-08T13:54:59.346Z,100639.35
2018-01-08T13:57:26.809Z,100639.58
2018-01-08T13:59:54.348Z,100638.20
2018-01-08T14:02:21.895Z,100637.45
2018-01-08T14:04:49.499Z,100642.95
2018-01-08T14:07:17.359Z,100626.53
2018-01-08T14:09:44.888Z,100633.03
2018-01-08T14:12:13.482Z,100627.78
2018-01-08T14:14:40.975Z,100626.75
2018-01-08T14:17:08.445Z,100625.83
2018-01-08T14:19:35.951Z,100612.80
2018-01-08T14:22:03.414Z,100619.03
2018-01-08T14:24:30.909Z,100611.36
2018-01-08T14:26:58.394Z,100613.97
2018-01-08T14:29:25.871Z,100618.95
2018-01-08T14:31:53.339Z,100625.45
2018-01-08T14:34:20.829Z,100627.63
2018-01-08T14:36:48.675Z,100625.68
2018-01-08T14:39:16.903Z,100625.20
2018-01-08T14:41:44.471Z,100619.06
2018-01-08T14:44:12.695Z,100619.91
2018-01-08T14:46:40.920Z,100622.69
2018-01-08T14:49:09.155Z,100621.66
2018-01-08T14:51:36.674Z,100621.92
2018-01-08T14:54:04.200Z,100622.19
2018-01-08T14:56:31.727Z,100619.27
2018-01-08T14:58:59.448Z,100621.89
2018-01-08T15:01:26.917Z,100619.65
2018-01-08T15:03:54.420Z,100619.33
2018-01-08T15:06:21.883Z,100613.16
2018-01-08T15:08:49.357Z,100614.41
2018-01-08T15:11:16.856Z,100607.06
2018-01-08T15:13:44.338Z,100616.69
2018-01-08T15:16:11.820Z,100608.69
2018-01-08T15:18:39.307Z,100601.80
2018-01-08T15:21:06.799Z,100602.33
2018-01-08T15:23:35.024Z,100613.53
2018-01-08T15:26:02.514Z,100614.69
2018-01-08T15:28:29.986Z,100606.23
2018-01-08T15:30:57.476Z,100605.02
2018-01-08T15:33:24.956Z,100597.03
2018-01-08T15:35:52.453Z,100592.15
2018-01-08T15:38:20.022Z,100594.53
2018-01-08T15:40:48.498Z,100598.89
2018-01-08T15:43:15.963Z,100598.38
2018-01-08T15:45:43.470Z,100601.92
2018-01-08T15:48:10.960Z,100601.17
2018-01-08T15:50:38.447Z,100608.09
2018-01-08T15:53:05.927Z,100601.67
2018-01-08T15:55:33.416Z,100609.53
2018-01-08T15:58:00.890Z,100610.47
2018-01-08T16:00:28.388Z,100604.47
2018-01-08T16:02:55.860Z,100595.27
2018-01-08T16:05:23.402Z,100588.95
2018-01-08T16:07:50.869Z,100585.51
2018-01-08T16:10:18.357Z,100583.56
2018-01-08T16:12:45.887Z,100577.09
2018-01-08T16:15:13.373Z,100587.88
2018-01-08T16:17:40.868Z,100584.59
2018-01-08T16:20:08.391Z,100585.04
2018-01-08T16:22:36.280Z,100586.81
2018-01-08T16:25:03.783Z,100592.90
2018-01-08T16:27:31.286Z,100584.44
2018-01-08T16:29:58.727Z,100590.48
2018-01-08T16:32:26.206Z,100584.58
2018-01-08T16:34:53.733Z,100583.94
2018-01-08T16:37:21.219Z,100579.61
2018-01-08T16:39:48.701Z,100586.02
2018-01-08T16:42:16.211Z,100585.93
2018-01-08T16:44:43.674Z,100577.79
2018-01-08T16:47:11.165Z,100576.22
2018-01-08T16:49:38.875Z,100570.91
2018-01-08T16:52:06.436Z,100567.39
2018-01-08T16:54:33.976Z,100564.09
2018-01-08T16:57:01.600Z,100567.62
2018-01-08T16:59:29.175Z,100571.66
2018-01-08T17:01:57.093Z,100560.78
2018-01-08T17:04:25.200Z,100562.13
2018-01-08T17:06:52.733Z,100554.56
2018-01-08T17:09:20.317Z,100547.13
2018-01-08T17:11:47.847Z,100544.02
2018-01-08T17:14:15.367Z,100549.22
2018-01-08T17:16:43.229Z,100552.10
2018-01-08T17:19:10.723Z,100539.70
2018-01-08T17:21:38.584Z,100519.16
2018-01-08T17:24:06.067Z,100532.36
2018-01-08T17:26:33.560Z,100525.44
2018-01-08T17:29:01.037Z,100520.98
2018-01-08T17:31:28.543Z,100518.80
2018-01-08T17:33:57.911Z,100533.39
2018-01-08T17:36:25.405Z,100526.27
2018-01-08T17:38:53.847Z,100523.58
2018-01-08T17:41:21.331Z,100525.34
2018-01-08T17:43:48.806Z,100517.44
2018-01-08T17:46:16.624Z,100508.40
2018-01-08T17:48:44.092Z,100516.80
2018-01-08T17:51:11.598Z,100514.75
2018-01-08T17:53:39.064Z,100518.89
2018-01-08T17:56:06.543Z,100515.68
2018-01-08T17:58:34.067Z,100519.72
2018-01-08T18:01:01.535Z,100518.98
2018-01-08T18:03:29.017Z,100516.10
2018-01-08T18:05:56.482Z,100523.90
2018-01-08T18:08:23.985Z,100524.19
2018-01-08T18:10:51.474Z,100525.67
2018-01-08T18:13:18.955Z,100525.67
2018-01-08T18:15:46.419Z,100514.16
2018-01-08T18:18:13.931Z,100506.81
2018-01-08T18:20:41.790Z,100511.08
2018-01-08T18:23:09.283Z,100510.94
2018-01-08T18:25:37.115Z,100509.56
2018-01-08T18:28:04.613Z,100509.09
2018-01-08T18:30:33.338Z,100503.33
2018-01-08T18:33:00.846Z,100499.23
2018-01-08T18:35:29.227Z,100497.54
2018-01-08T18:37:56.722Z,100488.67
2018-01-08T18:40:24.206Z,100485.79
2018-01-08T18:42:51.688Z,100488.06
2018-01-08T18:45:19.156Z,100488.64
2018-01-08T18:47:46.645Z,100486.52
2018-01-08T18:50:14.115Z,100492.87
2018-01-08T18:52:41.616Z,100488.63
2018-01-08T18:55:09.095Z,100484.09
2018-01-08T18:57:36.591Z,100484.53
2018-01-08T19:00:04.164Z,100475.77
2018-01-08T19:02:31.684Z,100470.38
2018-01-08T19:04:59.223Z,100471.22
2018-01-08T19:07:26.757Z,100470.91
2018-01-08T19:09:54.232Z,100465.00
2018-01-08T19:12:21.747Z,100464.09
2018-01-08T19:14:49.232Z,100457.27
2018-01-08T19:17:16.703Z,100456.14
2018-01-08T19:19:44.211Z,100457.16
2018-01-08T19:22:11.687Z,100453.98
2018-01-08T19:24:39.183Z,100459.22
2018-01-08T19:27:06.647Z,100453.67
2018-01-08T19:29:34.207Z,100452.42
2018-01-08T19:32:01.691Z,100447.34
2018-01-08T19:34:29.205Z,100454.38
2018-01-08T19:36:56.673Z,100448.70
2018-01-08T19:39:24.160Z,100445.91
2018-01-08T19:41:51.623Z,100448.80
2018-01-08T19:44:19.150Z,100447.16
2018-01-08T19:46:46.639Z,100440.53
2018-01-08T19:49:14.125Z,100437.30
2018-01-08T19:51:41.591Z,100439.91
2018-01-08T19:54:09.091Z,100432.26
2018-01-08T19:56:36.567Z,100434.62
2018-01-08T19:59:04.051Z,100425.35
2018-01-08T20:01:31.535Z,100430.72
2018-01-08T20:03:59.021Z,100425.45
2018-01-08T20:06:26.492Z,100423.30
2018-01-08T20:08:53.975Z,100425.88
2018-01-08T20:11:21.464Z,100428.66
2018-01-08T20:13:48.955Z,100423.17
2018-01-08T20:16:16.419Z,100413.14
2018-01-08T20:18:43.915Z,100417.16
2018-01-08T20:21:11.393Z,100410.87
2018-01-08T20:23:38.899Z,100419.27
2018-01-08T20:26:06.378Z,100417.72
2018-01-08T20:28:33.878Z,100418.11
2018-01-08T20:31:01.349Z,100416.66
2018-01-08T20:33:28.836Z,100426.02
2018-01-08T20:35:56.364Z,100431.91
2018-01-08T20:38:23.796Z,100427.98
2018-01-08T20:40:51.307Z,100435.80
2018-01-08T20:43:18.775Z,100426.27
2018-01-08T20:45:46.265Z,100429.79
2018-01-08T20:48:13.744Z,100423.48
2018-01-08T20:50:41.279Z,100424.83
2018-01-08T20:53:10.283Z,100423.06
2018-01-08T20:55:37.899Z,100415.61
2018-01-08T20:58:05.375Z,100422.72
2018-01-08T21:00:32.870Z,100412.80
2018-01-08T21:03:00.340Z,100412.98
2018-01-08T21:05:27.831Z,100421.66
2018-01-08T21:07:55.299Z,100419.48
2018-01-08T21:10:22.787Z,100417.31
2018-01-08T21:12:50.251Z,100404.18
2018-01-08T21:15:17.712Z,100409.02
2018-01-08T21:17:45.194Z,100390.60
2018-01-08T21:20:12.684Z,100390.73
2018-01-08T21:22:40.178Z,100379.14
2018-01-08T21:25:07.663Z,100376.03
2018-01-08T21:27:35.159Z,100381.41
2018-01-08T21:30:02.628Z,100372.93
2018-01-08T21:32:30.111Z,100366.72
2018-01-08T21:34:57.580Z,100366.53
2018-01-08T21:37:25.067Z,100356.60
2018-01-08T21:39:52.531Z,100364.34
2018-01-08T21:42:20.027Z,100361.66
2018-01-08T21:44:47.487Z,100365.13
2018-01-08T21:47:14.955Z,100359.09
2018-01-08T21:49:42.434Z,100357.43
2018-01-08T21:52:09.916Z,100354.33
2018-01-08T21:54:37.407Z,100350.16
2018-01-08T21:57:04.870Z,100349.93
2018-01-08T21:59:32.357Z,100349.73
2018-01-08T22:01:59.844Z,100340.38
2018-01-08T22:04:27.332Z,100341.77
2018-01-08T22:06:54.795Z,100331.33
2018-01-08T22:09:22.295Z,100321.22
2018-01-08T22:11:49.764Z,100314.53
2018-01-08T22:14:17.251Z,100311.20
2018-01-08T22:16:44.735Z,100301.37
2018-01-08T22:19:12.227Z,100296.31
2018-01-08T22:21:39.734Z,100292.73
2018-01-08T22:24:07.204Z,100280.31
2018-01-08T22:26:34.707Z,100277.53
2018-01-08T22:29:02.196Z,100271.27
2018-01-08T22:31:29.694Z,100264.28
2018-01-08T22:33:57.165Z,100262.98
2018-01-08T22:36:24.632Z,100261.95
2018-01-08T22:38:52.122Z,100266.69
2018-01-08T22:41:19.591Z,100262.14
2018-01-08T22:43:47.162Z,100261.27
2018-01-08T22:46:14.638Z,100266.22
2018-01-08T22:48:42.163Z,100262.45
2018-01-08T22:51:09.682Z,100262.37
2018-01-08T22:53:37.207Z,100252.59
2018-01-08T22:56:04.674Z,100250.03
2018-01-08T22:58:32.155Z,100250.86
2018-01-08T23:00:59.636Z,100249.70
2018-01-08T23:03:27.144Z,100247.28
2018-01-08T23:05:54.615Z,100242.28
2018-01-08T23:08:22.083Z,100231.76
2018-01-08T23:10:49.571Z,100228.83
2018-01-08T23:13:17.040Z,100230.36
2018-01-08T23:15:44.530Z,100222.23
2018-01-08T23:18:12.004Z,100220.16
2018-01-08T23:20:39.500Z,100216.81
2018-01-08T23:23:08.280Z,100216.06
2018-01-08T23:25:35.759Z,100205.44
2018-01-08T23:28:03.227Z,100200.89
2018-01-08T23:30:30.711Z,100197.98
2018-01-08T23:32:58.194Z,100198.65
2018-01-08T23:35:25.682Z,100199.58
2018-01-08T23:37:53.159Z,100196.14
2018-01-08T23:40:20.632Z,100190.98
2018-01-08T23:42:48.120Z,100185.53
2018-01-08T23:45:15.584Z,100183.89
2018-01-08T23:47:43.062Z,100181.77
2018-01-08T23:50:10.527Z,100179.25
2018-01-08T23:52:38.025Z,100170.84
2018-01-08T23:55:05.499Z,100174.88
2018-01-08T23:57:32.991Z,100165.98
